Time;durP1;ratioP1;P1;durP2;ratioP2;P2;SDS_P1;SDS_P2;PMS_P1;PMS_P2;Temp;Humidity;BMP_temperature;BMP_pressure;BME280_temperature;BME280_humidity;BME280_pressure;Samples;Min_cycle;Max_cycle;Signal;HPM_P1;HPM_P2
2022/04/03 00:01:11;;;;;;;;;;;;;;;;;;6181312;23;19932;-83
2022/04/03 00:03:41;;;;;;;;;;;;;;;;;;6155307;23;19920;-84
2022/04/03 00:06:11;;;;;;;;;;;;;;;;;;6150761;23;19916;-84
2022/04/03 00:08:37;;;;;;;;;;;;;;;;;;6150588;23;19920;-84
2022/04/03 00:11:05;;;;;;;;;;;;;;;;;;6175264;23;19920;-84
2022/04/03 00:13:32;;;;;;;;;;;;;;;;;;6150787;23;20288;-84
2022/04/03 00:15:59;;;;;;;;;;;;;;;;;;6151002;23;20273;-84
2022/04/03 00:18:26;;;;;;;;;;;;;;;;;;6149781;23;19924;-84
2022/04/03 00:20:53;;;;;;;;;;;;;;;;;;6175375;23;19920;-84
2022/04/03 00:23:23;;;;;;;;;;;;;;;;;;6149481;23;19948;-83
2022/04/03 00:26:00;;;;;;;;;;;;;;;;;;6175889;23;19916;-83
2022/04/03 00:28:28;;;;;;;;;;;;;;;;;;6168705;23;19930;-83
2022/04/03 00:30:55;;;;;;;;;;;;;;;;;;6178343;23;19930;-83
2022/04/03 00:33:22;;;;;;;;;;;;;;;;;;6179139;23;19960;-83
2022/04/03 00:35:50;;;;;;;;;;;;;;;;;;6178870;23;19931;-83
2022/04/03 00:38:17;;;;;;;;;;;;;;;;;;6178735;23;20323;-83
2022/04/03 00:40:44;;;;;;;;;;;;;;;;;;6179151;23;19919;-83
2022/04/03 00:43:11;;;;;;;;;;;;;;;;;;6179301;23;19926;-83
2022/04/03 00:45:37;;;;;;;;;;;;;;;;;;6179053;23;20004;-83
2022/04/03 00:48:19;;;;;;;;;;;;;;;;;;6141990;23;19916;-84
2022/04/03 00:50:46;;;;;;;;;;;;;;;;;;6119976;23;20434;-83
2022/04/03 00:53:14;;;;;;;;;;;;;;;;;;6121456;23;20281;-83
2022/04/03 00:55:41;;;;;;;;;;;;;;;;;;6118522;23;19964;-84
2022/04/03 00:58:08;;;;;;;;;;;;;;;;;;6118231;23;19928;-83
2022/04/03 01:00:35;;;;;;;;;;;;;;;;;;6117871;23;20425;-83
2022/04/03 01:03:02;;;;;;;;;;;;;;;;;;6117124;23;19955;-83
2022/04/03 01:05:29;;;;;;;;;;;;;;;;;;6116495;23;19995;-83
2022/04/03 01:07:57;;;;;;;;;;;;;;;;;;6117245;23;19921;-83
2022/04/03 01:10:24;;;;;;;;;;;;;;;;;;6118132;23;19920;-83
2022/04/03 01:12:50;;;;;;;;;;;;;;;;;;6118311;23;19948;-83
2022/04/03 01:15:16;;;;;;;;;;;;;;;;;;6118784;23;19971;-83
2022/04/03 01:17:49;;;;;;;;;;;;;;;;;;6119310;23;19996;-83
2022/04/03 01:20:15;;;;;;;;;;;;;;;;;;6117356;23;19940;-83
2022/04/03 01:22:42;;;;;;;;;;;;;;;;;;6118917;23;19925;-84
2022/04/03 01:25:11;;;;;;;;;;;;;;;;;;6153340;23;19920;-83
2022/04/03 01:27:39;;;;;;;;;;;;;;;;;;6173319;23;20334;-84
2022/04/03 01:30:25;;;;;;;;;;;;;;;;;;6177171;23;20689;-84
2022/04/03 01:32:58;;;;;;;;;;;;;;;;;;6177889;23;19982;-83
2022/04/03 01:35:25;;;;;;;;;;;;;;;;;;6200496;23;19923;-83
2022/04/03 01:37:57;;;;;;;;;;;;;;;;;;6181462;23;19923;-83
2022/04/03 01:40:28;;;;;;;;;;;;;;;;;;6180093;23;19920;-83
2022/04/03 01:42:56;;;;;;;;;;;;;;;;;;6155654;23;19998;-84
2022/04/03 01:45:22;;;;;;;;;;;;;;;;;;6155285;23;19920;-83
2022/04/03 01:47:49;;;;;;;;;;;;;;;;;;6156379;23;19919;-83
2022/04/03 01:50:29;;;;;;;;;;;;;;;;;;6205479;23;19920;-83
2022/04/03 01:52:56;;;;;;;;;;;;;;;;;;6179964;23;19920;-83
2022/04/03 01:55:24;;;;;;;;;;;;;;;;;;6179851;23;19935;-83
2022/04/03 01:57:54;;;;;;;;;;;;;;;;;;6204824;23;19938;-83
2022/04/03 02:00:21;;;;;;;;;;;;;;;;;;6153066;23;20051;-83
2022/04/03 02:02:47;;;;;;;;;;;;;;;;;;6174601;23;19920;-83
2022/04/03 02:05:14;;;;;;;;;;;;;;;;;;6173632;23;19927;-83
2022/04/03 02:07:41;;;;;;;;;;;;;;;;;;6173937;23;19956;-83
2022/04/03 02:10:12;;;;;;;;;;;;;;;;;;6172287;23;19920;-83
2022/04/03 02:12:40;;;;;;;;;;;;;;;;;;6172877;23;19989;-83
2022/04/03 02:15:07;;;;;;;;;;;;;;;;;;6173193;23;19995;-84
2022/04/03 02:17:43;;;;;;;;;;;;;;;;;;6174294;23;19924;-83
2022/04/03 02:20:10;;;;;;;;;;;;;;;;;;6172226;23;19920;-83
2022/04/03 02:22:37;;;;;;;;;;;;;;;;;;6172251;23;19963;-84
2022/04/03 02:25:09;;;;;;;;;;;;;;;;;;6174258;23;19924;-84
2022/04/03 02:27:36;;;;;;;;;;;;;;;;;;6172568;23;19952;-84
2022/04/03 02:30:04;;;;;;;;;;;;;;;;;;6173041;23;19952;-84
2022/04/03 02:32:31;;;;;;;;;;;;;;;;;;6171576;23;19927;-83
2022/04/03 02:35:07;;;;;;;;;;;;;;;;;;6196063;23;19927;-84
2022/04/03 02:37:34;;;;;;;;;;;;;;;;;;6172845;23;20023;-83
2022/04/03 02:40:00;;;;;;;;;;;;;;;;;;6173717;23;19920;-83
2022/04/03 02:42:28;;;;;;;;;;;;;;;;;;6172664;23;19931;-84
2022/04/03 02:44:55;;;;;;;;;;;;;;;;;;6173011;23;19995;-83
2022/04/03 02:47:22;;;;;;;;;;;;;;;;;;6173088;23;20015;-84
2022/04/03 02:49:52;;;;;;;;;;;;;;;;;;6173627;23;19923;-83
2022/04/03 02:52:19;;;;;;;;;;;;;;;;;;6172113;23;19967;-84
2022/04/03 02:54:46;;;;;;;;;;;;;;;;;;6172752;23;19916;-84
2022/04/03 02:57:14;;;;;;;;;;;;;;;;;;6172869;23;19924;-84
2022/04/03 02:59:41;;;;;;;;;;;;;;;;;;6198395;23;19947;-83
2022/04/03 03:02:22;;;;;;;;;;;;;;;;;;6139475;23;19920;-83
2022/04/03 03:04:48;;;;;;;;;;;;;;;;;;6116623;23;20331;-84
2022/04/03 03:07:22;;;;;;;;;;;;;;;;;;6116089;23;20048;-84
2022/04/03 03:09:52;;;;;;;;;;;;;;;;;;6140506;23;19983;-84
2022/04/03 03:12:19;;;;;;;;;;;;;;;;;;6116168;23;19916;-84
2022/04/03 03:14:46;;;;;;;;;;;;;;;;;;6117659;23;20375;-84
2022/04/03 03:17:28;;;;;;;;;;;;;;;;;;6141526;23;19932;-83
2022/04/03 03:20:14;;;;;;;;;;;;;;;;;;6142668;23;20284;-84
2022/04/03 03:22:42;;;;;;;;;;;;;;;;;;6119400;23;19940;-83
2022/04/03 03:25:09;;;;;;;;;;;;;;;;;;6120436;23;19920;-84
2022/04/03 03:27:38;;;;;;;;;;;;;;;;;;6121678;23;19964;-84
2022/04/03 03:30:23;;;;;;;;;;;;;;;;;;6140200;23;19927;-83
2022/04/03 03:32:50;;;;;;;;;;;;;;;;;;6129298;23;19920;-83
2022/04/03 03:35:18;;;;;;;;;;;;;;;;;;6176569;23;19923;-83
2022/04/03 03:37:45;;;;;;;;;;;;;;;;;;6176958;23;19987;-83
2022/04/03 03:40:14;;;;;;;;;;;;;;;;;;6177532;23;19924;-83
2022/04/03 03:42:41;;;;;;;;;;;;;;;;;;6127388;23;19931;-83
2022/04/03 03:45:09;;;;;;;;;;;;;;;;;;6178469;23;19920;-83
2022/04/03 03:47:50;;;;;;;;;;;;;;;;;;6178663;23;19923;-83
2022/04/03 03:50:38;;;;;;;;;;;;;;;;;;6121922;23;19928;-83
2022/04/03 03:53:05;;;;;;;;;;;;;;;;;;6096945;23;19995;-83
2022/04/03 03:55:32;;;;;;;;;;;;;;;;;;6120483;23;19928;-83
2022/04/03 03:57:59;;;;;;;;;;;;;;;;;;6122272;23;19927;-84
2022/04/03 04:00:26;;;;;;;;;;;;;;;;;;6096688;23;19928;-84
2022/04/03 04:02:54;;;;;;;;;;;;;;;;;;6097344;23;20504;-83
2022/04/03 04:05:21;;;;;;;;;;;;;;;;;;6118299;23;19917;-83
2022/04/03 04:07:49;;;;;;;;;;;;;;;;;;6094962;23;20092;-84
2022/04/03 04:10:16;;;;;;;;;;;;;;;;;;6095613;23;19920;-83
2022/04/03 04:12:43;;;;;;;;;;;;;;;;;;6120180;23;19924;-83
2022/04/03 04:15:11;;;;;;;;;;;;;;;;;;6120653;23;19924;-83
2022/04/03 04:17:38;;;;;;;;;;;;;;;;;;6095859;23;20334;-83
2022/04/03 04:20:05;;;;;;;;;;;;;;;;;;6095535;23;19920;-83
2022/04/03 04:22:46;;;;;;;;;;;;;;;;;;6064231;23;19921;-83
2022/04/03 04:25:32;;;;;;;;;;;;;;;;;;6087079;23;19932;-83
2022/04/03 04:28:00;;;;;;;;;;;;;;;;;;6061465;23;19929;-84
2022/04/03 04:30:27;;;;;;;;;;;;;;;;;;6086298;23;20004;-84
2022/04/03 04:32:53;;;;;;;;;;;;;;;;;;6061060;23;19991;-83
2022/04/03 04:35:21;;;;;;;;;;;;;;;;;;6060873;23;19953;-83
2022/04/03 04:37:48;;;;;;;;;;;;;;;;;;6061659;23;19921;-83
2022/04/03 04:40:14;;;;;;;;;;;;;;;;;;6062620;23;20738;-83
2022/04/03 04:42:44;;;;;;;;;;;;;;;;;;6061303;23;19921;-83
2022/04/03 04:45:14;;;;;;;;;;;;;;;;;;6060750;23;19921;-83
2022/04/03 04:47:50;;;;;;;;;;;;;;;;;;6062205;23;19924;-83
2022/04/03 04:50:18;;;;;;;;;;;;;;;;;;6062949;23;19965;-84
2022/04/03 04:52:58;;;;;;;;;;;;;;;;;;6075377;23;19920;-83
2022/04/03 04:55:40;;;;;;;;;;;;;;;;;;6178406;23;20739;-83
2022/04/03 04:58:07;;;;;;;;;;;;;;;;;;6151392;23;19920;-84
2022/04/03 05:00:34;;;;;;;;;;;;;;;;;;6150430;23;19935;-83
2022/04/03 05:03:01;;;;;;;;;;;;;;;;;;6151696;23;19927;-83
2022/04/03 05:05:29;;;;;;;;;;;;;;;;;;6151002;23;19926;-83
2022/04/03 05:08:00;;;;;;;;;;;;;;;;;;6177962;23;19916;-83
2022/04/03 05:10:27;;;;;;;;;;;;;;;;;;6151982;23;19920;-83
2022/04/03 05:12:54;;;;;;;;;;;;;;;;;;6152355;23;20263;-83
2022/04/03 05:15:26;;;;;;;;;;;;;;;;;;6151780;23;19924;-83
2022/04/03 05:17:53;;;;;;;;;;;;;;;;;;6150855;23;20337;-83
2022/04/03 05:20:21;;;;;;;;;;;;;;;;;;6150490;23;19920;-83
2022/04/03 05:22:48;;;;;;;;;;;;;;;;;;6149094;23;20007;-83
2022/04/03 05:25:15;;;;;;;;;;;;;;;;;;6149575;23;20310;-83
2022/04/03 05:27:41;;;;;;;;;;;;;;;;;;6150442;23;20771;-83
2022/04/03 05:30:10;;;;;;;;;;;;;;;;;;6174257;23;19930;-83
2022/04/03 05:32:37;;;;;;;;;;;;;;;;;;6175572;23;19974;-83
2022/04/03 05:35:05;;;;;;;;;;;;;;;;;;6175980;23;19923;-83
2022/04/03 05:37:32;;;;;;;;;;;;;;;;;;6206225;23;19923;-83
2022/04/03 05:40:00;;;;;;;;;;;;;;;;;;6181363;23;19920;-83
2022/04/03 05:42:26;;;;;;;;;;;;;;;;;;6180500;23;19920;-83
2022/04/03 05:44:53;;;;;;;;;;;;;;;;;;6181811;23;20337;-83
2022/04/03 05:47:20;;;;;;;;;;;;;;;;;;6180627;23;19966;-83
2022/04/03 05:49:48;;;;;;;;;;;;;;;;;;6182509;23;19916;-83
2022/04/03 05:52:15;;;;;;;;;;;;;;;;;;6182532;23;19916;-83
2022/04/03 05:54:58;;;;;;;;;;;;;;;;;;6206741;23;20380;-83
2022/04/03 05:57:25;;;;;;;;;;;;;;;;;;6180468;23;19938;-82
2022/04/03 05:59:52;;;;;;;;;;;;;;;;;;6181322;23;19924;-83
2022/04/03 06:02:19;;;;;;;;;;;;;;;;;;6181124;23;19993;-83
2022/04/03 06:04:46;;;;;;;;;;;;;;;;;;6178635;23;20333;-84
2022/04/03 06:07:13;;;;;;;;;;;;;;;;;;6179686;23;20563;-84
2022/04/03 06:09:41;;;;;;;;;;;;;;;;;;6180970;23;19916;-83
2022/04/03 06:12:08;;;;;;;;;;;;;;;;;;6179299;23;19920;-84
2022/04/03 06:14:54;;;;;;;;;;;;;;;;;;6205854;23;19918;-83
2022/04/03 06:17:21;;;;;;;;;;;;;;;;;;6179499;23;19924;-83
2022/04/03 06:19:49;;;;;;;;;;;;;;;;;;6180828;23;20645;-83
2022/04/03 06:22:15;;;;;;;;;;;;;;;;;;6179812;23;19920;-83
2022/04/03 06:24:43;;;;;;;;;;;;;;;;;;6180178;23;19924;-84
2022/04/03 06:27:10;;;;;;;;;;;;;;;;;;6178464;23;19916;-83
2022/04/03 06:29:52;;;;;;;;;;;;;;;;;;6207426;23;19974;-83
2022/04/03 06:32:18;;;;;;;;;;;;;;;;;;6180330;23;19920;-83
2022/04/03 06:34:47;;;;;;;;;;;;;;;;;;6180877;23;19921;-83
2022/04/03 06:37:14;;;;;;;;;;;;;;;;;;6206041;23;19919;-83
2022/04/03 06:39:41;;;;;;;;;;;;;;;;;;6181201;23;19916;-83
2022/04/03 06:42:08;;;;;;;;;;;;;;;;;;6205660;23;19927;-83
2022/04/03 06:44:35;;;;;;;;;;;;;;;;;;6178930;23;19919;-83
2022/04/03 06:47:02;;;;;;;;;;;;;;;;;;6207451;23;19919;-83
2022/04/03 06:49:28;;;;;;;;;;;;;;;;;;6205687;23;20203;-83
2022/04/03 06:52:01;;;;;;;;;;;;;;;;;;6180933;23;19969;-83
2022/04/03 06:54:28;;;;;;;;;;;;;;;;;;6180043;23;19942;-83
2022/04/03 06:56:55;;;;;;;;;;;;;;;;;;6181893;23;19981;-83
2022/04/03 06:59:23;;;;;;;;;;;;;;;;;;6181142;23;19920;-83
2022/04/03 07:02:05;;;;;;;;;;;;;;;;;;6135725;23;20413;-84
2022/04/03 07:04:32;;;;;;;;;;;;;;;;;;6115297;23;19925;-84
2022/04/03 07:07:13;;;;;;;;;;;;;;;;;;6139246;23;19984;-83
2022/04/03 07:09:40;;;;;;;;;;;;;;;;;;6141917;23;20358;-83
2022/04/03 07:12:08;;;;;;;;;;;;;;;;;;6116116;23;19991;-83
2022/04/03 07:14:34;;;;;;;;;;;;;;;;;;6142709;23;19923;-83
2022/04/03 07:17:01;;;;;;;;;;;;;;;;;;6093857;23;19928;-84
2022/04/03 07:19:27;;;;;;;;;;;;;;;;;;6141973;23;19921;-84
2022/04/03 07:22:11;;;;;;;;;;;;;;;;;;6087250;23;19921;-84
2022/04/03 07:24:38;;;;;;;;;;;;;;;;;;6112903;23;19924;-84
2022/04/03 07:27:19;;;;;;;;;;;;;;;;;;6050820;23;20472;-84
2022/04/03 07:29:45;;;;;;;;;;;;;;;;;;6029059;23;19925;-84
2022/04/03 07:32:33;;;;;;;;;;;;;;;;;;6037696;23;19925;-84
2022/04/03 07:35:01;;;;;;;;;;;;;;;;;;6034205;23;19929;-84
2022/04/03 07:37:28;;;;;;;;;;;;;;;;;;6039180;23;19921;-84
2022/04/03 07:39:54;;;;;;;;;;;;;;;;;;6063837;23;19952;-84
2022/04/03 07:42:21;;;;;;;;;;;;;;;;;;6039420;23;19925;-84
2022/04/03 07:44:48;;;;;;;;;;;;;;;;;;6040620;23;20299;-84
2022/04/03 07:47:14;;;;;;;;;;;;;;;;;;6063625;23;19924;-84
2022/04/03 07:49:43;;;;;;;;;;;;;;;;;;6063089;23;19929;-84
2022/04/03 07:52:30;;;;;;;;;;;;;;;;;;6015166;23;19957;-84
2022/04/03 07:54:58;;;;;;;;;;;;;;;;;;6034675;23;19926;-85
2022/04/03 07:57:25;;;;;;;;;;;;;;;;;;6034862;23;19982;-84
2022/04/03 07:59:51;;;;;;;;;;;;;;;;;;6035907;23;20071;-84
2022/04/03 08:02:18;;;;;;;;;;;;;;;;;;6034482;23;19922;-84
2022/04/03 08:04:45;;;;;;;;;;;;;;;;;;6077066;23;19916;-85
2022/04/03 08:07:13;;;;;;;;;;;;;;;;;;6096560;23;19936;-84
2022/04/03 08:09:40;;;;;;;;;;;;;;;;;;6119415;23;19921;-85
2022/04/03 08:12:07;;;;;;;;;;;;;;;;;;6121241;23;19944;-85
2022/04/03 08:14:35;;;;;;;;;;;;;;;;;;6097260;23;20022;-84
2022/04/03 08:17:20;;;;;;;;;;;;;;;;;;6067934;23;20006;-84
2022/04/03 08:19:47;;;;;;;;;;;;;;;;;;6064552;23;19953;-84
2022/04/03 08:22:14;;;;;;;;;;;;;;;;;;6063291;23;19921;-84
2022/04/03 08:24:59;;;;;;;;;;;;;;;;;;6146747;23;19988;-84
2022/04/03 08:27:25;;;;;;;;;;;;;;;;;;6122843;23;20624;-85
2022/04/03 08:29:58;;;;;;;;;;;;;;;;;;6146576;23;19936;-85
2022/04/03 08:32:29;;;;;;;;;;;;;;;;;;6119702;23;19923;-85
2022/04/03 08:34:56;;;;;;;;;;;;;;;;;;6121761;23;20033;-86
2022/04/03 08:37:44;;;;;;;;;;;;;;;;;;6147379;23;19927;-85
2022/04/03 08:40:13;;;;;;;;;;;;;;;;;;6146448;23;19920;-85
2022/04/03 08:42:52;;;;;;;;;;;;;;;;;;6121176;23;19925;-86
2022/04/03 08:45:23;;;;;;;;;;;;;;;;;;6121550;23;19916;-85
2022/04/03 08:47:49;;;;;;;;;;;;;;;;;;6133962;23;20226;-84
2022/04/03 08:50:35;;;;;;;;;;;;;;;;;;6199137;23;19962;-85
2022/04/03 08:53:02;;;;;;;;;;;;;;;;;;6178851;23;19927;-85
2022/04/03 08:55:29;;;;;;;;;;;;;;;;;;6177320;23;20257;-84
2022/04/03 08:57:57;;;;;;;;;;;;;;;;;;6177527;23;19923;-85
2022/04/03 09:00:23;;;;;;;;;;;;;;;;;;6176918;23;19920;-84
2022/04/03 09:02:50;;;;;;;;;;;;;;;;;;6175359;23;20691;-85
2022/04/03 09:05:16;;;;;;;;;;;;;;;;;;6200891;23;19916;-84
2022/04/03 09:07:43;;;;;;;;;;;;;;;;;;6176588;23;19927;-84
2022/04/03 09:10:11;;;;;;;;;;;;;;;;;;6177529;23;19991;-84
2022/04/03 09:12:38;;;;;;;;;;;;;;;;;;6177425;23;19920;-84
2022/04/03 09:15:05;;;;;;;;;;;;;;;;;;6179438;23;19931;-84
2022/04/03 09:17:32;;;;;;;;;;;;;;;;;;6177432;23;19974;-84
2022/04/03 09:20:02;;;;;;;;;;;;;;;;;;6177817;23;19920;-84
2022/04/03 09:22:28;;;;;;;;;;;;;;;;;;6174978;23;20015;-84
2022/04/03 09:24:55;;;;;;;;;;;;;;;;;;6150625;23;19959;-84
2022/04/03 09:27:21;;;;;;;;;;;;;;;;;;6151963;23;19924;-85
2022/04/03 09:29:54;;;;;;;;;;;;;;;;;;6150521;23;19930;-84
2022/04/03 09:32:33;;;;;;;;;;;;;;;;;;6153197;23;20059;-84
2022/04/03 09:35:06;;;;;;;;;;;;;;;;;;6151085;23;20515;-84
2022/04/03 09:37:32;;;;;;;;;;;;;;;;;;6126276;23;19929;-84
2022/04/03 09:40:06;;;;;;;;;;;;;;;;;;6151131;23;19927;-85
2022/04/03 09:42:33;;;;;;;;;;;;;;;;;;6127178;23;19934;-84
2022/04/03 09:44:58;;;;;;;;;;;;;;;;;;6151606;23;19920;-84
2022/04/03 09:47:36;;;;;;;;;;;;;;;;;;6150915;23;19920;-85
2022/04/03 09:50:03;;;;;;;;;;;;;;;;;;6150708;23;19920;-84
2022/04/03 09:52:30;;;;;;;;;;;;;;;;;;6176187;23;20452;-84
2022/04/03 09:54:57;;;;;;;;;;;;;;;;;;6180643;23;19920;-84
2022/04/03 09:57:25;;;;;;;;;;;;;;;;;;6177824;23;20023;-85
2022/04/03 09:59:53;;;;;;;;;;;;;;;;;;6177184;23;19978;-84
2022/04/03 10:02:20;;;;;;;;;;;;;;;;;;6176172;23;19920;-85
2022/04/03 10:04:48;;;;;;;;;;;;;;;;;;6175022;23;19946;-85
2022/04/03 10:07:23;;;;;;;;;;;;;;;;;;6176215;23;19991;-85
2022/04/03 10:09:49;;;;;;;;;;;;;;;;;;6176213;23;20289;-85
2022/04/03 10:12:16;;;;;;;;;;;;;;;;;;6175628;23;19920;-85
2022/04/03 10:14:44;;;;;;;;;;;;;;;;;;6176083;23;19987;-85
2022/04/03 10:17:23;;;;;;;;;;;;;;;;;;6173822;23;20010;-85
2022/04/03 10:19:53;;;;;;;;;;;;;;;;;;6176381;23;19916;-84
2022/04/03 10:22:19;;;;;;;;;;;;;;;;;;6174469;23;20296;-84
2022/04/03 10:25:02;;;;;;;;;;;;;;;;;;6175610;23;20018;-84
2022/04/03 10:27:50;;;;;;;;;;;;;;;;;;6148659;23;19987;-84
2022/04/03 10:30:20;;;;;;;;;;;;;;;;;;6148582;23;19979;-85
2022/04/03 10:32:47;;;;;;;;;;;;;;;;;;6124929;23;19916;-85
2022/04/03 10:35:17;;;;;;;;;;;;;;;;;;6128270;23;20357;-84
2022/04/03 10:37:44;;;;;;;;;;;;;;;;;;6148329;23;19932;-84
2022/04/03 10:40:15;;;;;;;;;;;;;;;;;;6121568;23;19931;-84
2022/04/03 10:42:43;;;;;;;;;;;;;;;;;;6123935;23;19920;-84
2022/04/03 10:45:10;;;;;;;;;;;;;;;;;;6147526;23;19920;-84
2022/04/03 10:47:36;;;;;;;;;;;;;;;;;;6122841;23;20330;-84
2022/04/03 10:50:06;;;;;;;;;;;;;;;;;;6149810;23;19927;-84
2022/04/03 10:52:34;;;;;;;;;;;;;;;;;;6124668;23;19928;-84
2022/04/03 10:55:02;;;;;;;;;;;;;;;;;;6125070;23;20097;-84
2022/04/03 10:57:37;;;;;;;;;;;;;;;;;;6172843;23;19929;-84
2022/04/03 11:00:05;;;;;;;;;;;;;;;;;;6150357;23;20015;-85
2022/04/03 11:02:48;;;;;;;;;;;;;;;;;;6117441;23;19927;-85
2022/04/03 11:05:15;;;;;;;;;;;;;;;;;;6115454;23;19944;-85
2022/04/03 11:07:43;;;;;;;;;;;;;;;;;;6091162;23;20407;-84
2022/04/03 11:10:10;;;;;;;;;;;;;;;;;;6085501;23;19920;-85
2022/04/03 11:12:36;;;;;;;;;;;;;;;;;;6083967;23;20004;-84
2022/04/03 11:15:11;;;;;;;;;;;;;;;;;;6075353;23;19928;-85
2022/04/03 11:17:37;;;;;;;;;;;;;;;;;;6100600;23;19925;-84
2022/04/03 11:20:10;;;;;;;;;;;;;;;;;;6052281;23;20013;-84
2022/04/03 11:22:45;;;;;;;;;;;;;;;;;;6056764;23;19927;-85
2022/04/03 11:25:11;;;;;;;;;;;;;;;;;;6055520;23;19925;-85
2022/04/03 11:27:43;;;;;;;;;;;;;;;;;;6081332;23;20340;-84
2022/04/03 11:30:09;;;;;;;;;;;;;;;;;;6062600;23;20425;-84
2022/04/03 11:32:54;;;;;;;;;;;;;;;;;;6088997;23;19964;-84
2022/04/03 11:35:35;;;;;;;;;;;;;;;;;;6082944;23;19988;-84
2022/04/03 11:38:03;;;;;;;;;;;;;;;;;;6058764;23;20367;-84
2022/04/03 11:40:30;;;;;;;;;;;;;;;;;;6081165;23;19943;-84
2022/04/03 11:42:57;;;;;;;;;;;;;;;;;;6061812;23;19960;-83
2022/04/03 11:45:24;;;;;;;;;;;;;;;;;;6063681;23;19922;-84
2022/04/03 11:47:51;;;;;;;;;;;;;;;;;;6061840;23;19921;-84
2022/04/03 11:50:17;;;;;;;;;;;;;;;;;;6057048;23;20390;-84
2022/04/03 11:52:44;;;;;;;;;;;;;;;;;;6061999;23;19921;-84
2022/04/03 11:55:11;;;;;;;;;;;;;;;;;;6065717;23;19921;-84
2022/04/03 11:57:38;;;;;;;;;;;;;;;;;;6063175;23;19967;-84
2022/04/03 12:00:06;;;;;;;;;;;;;;;;;;6064366;23;19960;-84
2022/04/03 12:02:31;;;;;;;;;;;;;;;;;;6062219;23;19931;-85
2022/04/03 12:05:05;;;;;;;;;;;;;;;;;;6062390;23;20438;-85
2022/04/03 12:07:32;;;;;;;;;;;;;;;;;;6092170;23;19928;-85
2022/04/03 12:09:59;;;;;;;;;;;;;;;;;;6097416;23;19920;-84
2022/04/03 12:12:26;;;;;;;;;;;;;;;;;;6097389;23;20642;-85
2022/04/03 12:14:54;;;;;;;;;;;;;;;;;;6097217;23;20345;-85
2022/04/03 12:17:21;;;;;;;;;;;;;;;;;;6100174;23;20223;-85
2022/04/03 12:19:48;;;;;;;;;;;;;;;;;;6125423;23;19921;-85
2022/04/03 12:22:14;;;;;;;;;;;;;;;;;;6110607;23;19917;-85
2022/04/03 12:24:41;;;;;;;;;;;;;;;;;;6099959;23;19958;-85
2022/04/03 12:27:12;;;;;;;;;;;;;;;;;;6120151;23;19916;-85
2022/04/03 12:29:47;;;;;;;;;;;;;;;;;;6131541;23;19936;-85
2022/04/03 12:32:29;;;;;;;;;;;;;;;;;;6184014;23;19926;-85
2022/04/03 12:34:57;;;;;;;;;;;;;;;;;;6181527;23;20368;-84
2022/04/03 12:37:23;;;;;;;;;;;;;;;;;;6182796;23;19924;-85
2022/04/03 12:39:50;;;;;;;;;;;;;;;;;;6182522;23;19935;-85
2022/04/03 12:42:17;;;;;;;;;;;;;;;;;;6182924;23;19926;-85
2022/04/03 12:44:44;;;;;;;;;;;;;;;;;;6186413;23;19916;-85
2022/04/03 12:47:12;;;;;;;;;;;;;;;;;;6185148;23;19947;-84
2022/04/03 12:49:40;;;;;;;;;;;;;;;;;;6213479;23;19916;-84
2022/04/03 12:52:07;;;;;;;;;;;;;;;;;;6185311;23;19994;-85
2022/04/03 12:54:34;;;;;;;;;;;;;;;;;;6186061;23;19915;-85
2022/04/03 12:59:50;;;;;;;;;;;;;;;;;;6185992;23;19923;-85
2022/04/03 13:02:17;;;;;;;;;;;;;;;;;;6185017;23;19978;-84
2022/04/03 13:04:44;;;;;;;;;;;;;;;;;;6185287;23;20641;-85
2022/04/03 13:07:11;;;;;;;;;;;;;;;;;;6182438;23;19955;-85
2022/04/03 13:09:39;;;;;;;;;;;;;;;;;;6183176;23;20230;-85
2022/04/03 13:12:05;;;;;;;;;;;;;;;;;;6181370;23;19947;-84
2022/04/03 13:14:35;;;;;;;;;;;;;;;;;;6181685;23;19927;-84
2022/04/03 13:17:02;;;;;;;;;;;;;;;;;;6183029;23;19933;-84
2022/04/03 13:19:29;;;;;;;;;;;;;;;;;;6185182;23;19927;-84
2022/04/03 13:21:57;;;;;;;;;;;;;;;;;;6181894;23;19919;-85
2022/04/03 13:24:24;;;;;;;;;;;;;;;;;;6181385;23;20376;-85
2022/04/03 13:26:54;;;;;;;;;;;;;;;;;;6204290;23;19942;-84
2022/04/03 13:29:21;;;;;;;;;;;;;;;;;;6180280;23;19971;-85
2022/04/03 13:31:57;;;;;;;;;;;;;;;;;;6207740;23;20288;-85
2022/04/03 13:34:23;;;;;;;;;;;;;;;;;;6181532;23;19916;-85
2022/04/03 13:36:53;;;;;;;;;;;;;;;;;;6207072;23;19985;-84
2022/04/03 13:39:21;;;;;;;;;;;;;;;;;;6205142;23;19923;-84
2022/04/03 13:41:48;;;;;;;;;;;;;;;;;;6182009;23;19915;-84
2022/04/03 13:44:16;;;;;;;;;;;;;;;;;;6180314;23;19951;-84
2022/04/03 13:46:42;;;;;;;;;;;;;;;;;;6180670;23;20293;-84
2022/04/03 13:49:14;;;;;;;;;;;;;;;;;;6205821;23;20245;-84
2022/04/03 13:51:42;;;;;;;;;;;;;;;;;;6182317;23;20728;-84
2022/04/03 13:54:09;;;;;;;;;;;;;;;;;;6182812;23;20324;-84
2022/04/03 13:56:37;;;;;;;;;;;;;;;;;;6141107;23;19921;-84
2022/04/03 13:59:04;;;;;;;;;;;;;;;;;;6168702;23;19923;-84
2022/04/03 14:01:36;;;;;;;;;;;;;;;;;;6056091;23;19960;-84
2022/04/03 14:04:03;;;;;;;;;;;;;;;;;;6082564;23;19929;-84
2022/04/03 14:06:31;;;;;;;;;;;;;;;;;;6080698;23;19917;-84
2022/04/03 14:08:56;;;;;;;;;;;;;;;;;;6081244;23;19929;-84
2022/04/03 14:11:42;;;;;;;;;;;;;;;;;;6076638;23;19960;-80
2022/04/03 14:14:10;;;;;;;;;;;;;;;;;;6083296;23;19928;-83
2022/04/03 14:16:36;;;;;;;;;;;;;;;;;;6081382;23;20377;-84
2022/04/03 14:19:04;;;;;;;;;;;;;;;;;;6058303;23;19921;-84
2022/04/03 14:21:32;;;;;;;;;;;;;;;;;;6081934;23;19963;-84
2022/04/03 14:24:01;;;;;;;;;;;;;;;;;;6058629;23;20433;-84
2022/04/03 14:26:28;;;;;;;;;;;;;;;;;;6058813;23;19929;-84
2022/04/03 14:28:56;;;;;;;;;;;;;;;;;;6058406;23;19928;-84
2022/04/03 14:31:32;;;;;;;;;;;;;;;;;;6063285;23;19989;-84
2022/04/03 14:33:59;;;;;;;;;;;;;;;;;;6116256;23;19920;-84
2022/04/03 14:36:27;;;;;;;;;;;;;;;;;;6122064;23;20007;-84
2022/04/03 14:38:54;;;;;;;;;;;;;;;;;;6123933;23;19921;-85
2022/04/03 14:41:21;;;;;;;;;;;;;;;;;;6100141;23;20617;-84
2022/04/03 14:43:49;;;;;;;;;;;;;;;;;;6121902;23;20349;-85
2022/04/03 14:46:18;;;;;;;;;;;;;;;;;;6121313;23;19920;-84
2022/04/03 14:48:45;;;;;;;;;;;;;;;;;;6120677;23;19928;-84
2022/04/03 14:51:12;;;;;;;;;;;;;;;;;;6119785;23;19982;-84
2022/04/03 14:53:39;;;;;;;;;;;;;;;;;;6097028;23;19974;-84
2022/04/03 14:56:05;;;;;;;;;;;;;;;;;;6096223;23;19932;-84
2022/04/03 14:58:33;;;;;;;;;;;;;;;;;;6119815;23;19924;-84
2022/04/03 15:01:01;;;;;;;;;;;;;;;;;;6118316;23;19923;-84
2022/04/03 15:03:29;;;;;;;;;;;;;;;;;;6122283;23;19971;-84
2022/04/03 15:05:56;;;;;;;;;;;;;;;;;;6122184;23;19920;-84
2022/04/03 15:08:23;;;;;;;;;;;;;;;;;;6121153;23;19917;-84
2022/04/03 15:10:50;;;;;;;;;;;;;;;;;;6122729;23;20558;-84
2022/04/03 15:13:17;;;;;;;;;;;;;;;;;;6097500;23;19991;-84
2022/04/03 15:15:44;;;;;;;;;;;;;;;;;;6122615;23;19951;-84
2022/04/03 15:18:10;;;;;;;;;;;;;;;;;;6121223;23;19916;-84
2022/04/03 15:20:38;;;;;;;;;;;;;;;;;;6097568;23;19927;-84
2022/04/03 15:23:05;;;;;;;;;;;;;;;;;;6146738;23;19921;-84
2022/04/03 15:25:32;;;;;;;;;;;;;;;;;;6122074;23;20249;-84
2022/04/03 15:28:00;;;;;;;;;;;;;;;;;;6097873;23;20336;-84
2022/04/03 15:30:27;;;;;;;;;;;;;;;;;;6085953;23;19925;-84
2022/04/03 15:32:54;;;;;;;;;;;;;;;;;;6121583;23;20372;-84
2022/04/03 15:35:21;;;;;;;;;;;;;;;;;;6095820;23;19920;-84
2022/04/03 15:37:49;;;;;;;;;;;;;;;;;;6122838;23;20266;-84
2022/04/03 15:40:15;;;;;;;;;;;;;;;;;;6122926;23;19967;-84
2022/04/03 15:42:42;;;;;;;;;;;;;;;;;;6122823;23;20015;-84
2022/04/03 15:45:09;;;;;;;;;;;;;;;;;;6123404;23;19967;-85
2022/04/03 15:47:40;;;;;;;;;;;;;;;;;;6148708;23;19920;-84
2022/04/03 15:50:06;;;;;;;;;;;;;;;;;;6121618;23;20396;-84
2022/04/03 15:52:34;;;;;;;;;;;;;;;;;;6122644;23;19931;-84
2022/04/03 15:55:03;;;;;;;;;;;;;;;;;;6098971;23;19920;-84
2022/04/03 15:57:38;;;;;;;;;;;;;;;;;;6148779;23;19932;-84
2022/04/03 16:00:04;;;;;;;;;;;;;;;;;;6098922;23;20015;-84
2022/04/03 16:02:33;;;;;;;;;;;;;;;;;;6099584;23;20797;-83
2022/04/03 16:05:04;;;;;;;;;;;;;;;;;;6149170;23;19967;-84
2022/04/03 16:07:31;;;;;;;;;;;;;;;;;;6098456;23;20334;-84
2022/04/03 16:09:58;;;;;;;;;;;;;;;;;;6121672;23;19920;-85
2022/04/03 16:12:25;;;;;;;;;;;;;;;;;;6097252;23;20277;-85
2022/04/03 16:14:52;;;;;;;;;;;;;;;;;;6170968;23;19975;-84
2022/04/03 16:17:19;;;;;;;;;;;;;;;;;;6097194;23;19986;-85
2022/04/03 16:19:48;;;;;;;;;;;;;;;;;;6097776;23;19992;-84
2022/04/03 16:22:14;;;;;;;;;;;;;;;;;;6121917;23;19956;-84
2022/04/03 16:24:59;;;;;;;;;;;;;;;;;;6126589;23;19916;-84
2022/04/03 16:27:27;;;;;;;;;;;;;;;;;;6119709;23;19928;-84
2022/04/03 16:29:54;;;;;;;;;;;;;;;;;;6129242;23;20003;-84
2022/04/03 16:32:20;;;;;;;;;;;;;;;;;;6173878;23;19924;-84
2022/04/03 16:34:47;;;;;;;;;;;;;;;;;;6181646;23;20020;-84
2022/04/03 16:37:15;;;;;;;;;;;;;;;;;;6180234;23;20249;-84
2022/04/03 16:39:42;;;;;;;;;;;;;;;;;;6182927;23;19958;-84
2022/04/03 16:42:09;;;;;;;;;;;;;;;;;;6182768;23;19919;-84
2022/04/03 16:44:37;;;;;;;;;;;;;;;;;;6182252;23;19962;-84
2022/04/03 16:47:04;;;;;;;;;;;;;;;;;;6206356;23;19919;-85
2022/04/03 16:49:30;;;;;;;;;;;;;;;;;;6183515;23;19923;-84
2022/04/03 16:51:57;;;;;;;;;;;;;;;;;;6178604;23;19924;-84
2022/04/03 16:54:23;;;;;;;;;;;;;;;;;;6181783;23;20254;-83
2022/04/03 16:56:57;;;;;;;;;;;;;;;;;;6181356;23;19931;-83
2022/04/03 16:59:26;;;;;;;;;;;;;;;;;;6209710;23;19923;-84
2022/04/03 17:01:54;;;;;;;;;;;;;;;;;;6179821;23;19962;-84